sensor_id;sensor_type;location;lat;lon;timestamp;pressure;altitude;pressure_sealevel;temperature;humidity
64872;BME280;51351;51.450;6.614;2023-10-19T00:00:37;99276.94;;;11.31;89.79
64872;BME280;51351;51.450;6.614;2023-10-19T00:03:06;99280.03;;;11.35;89.45
64872;BME280;51351;51.450;6.614;2023-10-19T00:05:32;99280.47;;;11.38;89.31
64872;BME280;51351;51.450;6.614;2023-10-19T00:07:59;99268.22;;;11.39;89.52
64872;BME280;51351;51.450;6.614;2023-10-19T00:10:26;99271.47;;;11.41;89.56
64872;BME280;51351;51.450;6.614;2023-10-19T00:13:02;99269.66;;;11.41;89.76
64872;BME280;51351;51.450;6.614;2023-10-19T00:15:34;99268.69;;;11.42;89.66
64872;BME280;51351;51.450;6.614;2023-10-19T00:18:03;99266.50;;;11.46;89.26
64872;BME280;51351;51.450;6.614;2023-10-19T00:20:58;99265.50;;;11.47;89.53
64872;BME280;51351;51.450;6.614;2023-10-19T00:24:07;99266.16;;;11.49;89.51
64872;BME280;51351;51.450;6.614;2023-10-19T00:26:35;99255.50;;;11.50;89.66
64872;BME280;51351;51.450;6.614;2023-10-19T00:29:00;99251.72;;;11.53;89.58
64872;BME280;51351;51.450;6.614;2023-10-19T00:31:40;99253.38;;;11.54;89.76
64872;BME280;51351;51.450;6.614;2023-10-19T00:34:06;99248.94;;;11.54;89.86
64872;BME280;51351;51.450;6.614;2023-10-19T00:36:32;99241.72;;;11.56;89.44
64872;BME280;51351;51.450;6.614;2023-10-19T00:39:00;99252.63;;;11.60;89.36
64872;BME280;51351;51.450;6.614;2023-10-19T00:41:30;99258.69;;;11.60;89.27
64872;BME280;51351;51.450;6.614;2023-10-19T00:43:57;99255.25;;;11.60;89.88
64872;BME280;51351;51.450;6.614;2023-10-19T00:46:28;99244.78;;;11.60;90.01
64872;BME280;51351;51.450;6.614;2023-10-19T00:49:15;99241.06;;;11.62;89.58
64872;BME280;51351;51.450;6.614;2023-10-19T00:51:44;99249.50;;;11.64;89.79
64872;BME280;51351;51.450;6.614;2023-10-19T00:54:27;99251.94;;;11.66;89.80
64872;BME280;51351;51.450;6.614;2023-10-19T00:56:59;99250.16;;;11.66;89.99
64872;BME280;51351;51.450;6.614;2023-10-19T00:59:31;99243.31;;;11.65;90.37
64872;BME280;51351;51.450;6.614;2023-10-19T01:02:01;99240.69;;;11.65;90.38
64872;BME280;51351;51.450;6.614;2023-10-19T01:05:02;99232.47;;;11.68;90.37
64872;BME280;51351;51.450;6.614;2023-10-19T01:07:31;99239.34;;;11.69;90.75
64872;BME280;51351;51.450;6.614;2023-10-19T01:10:01;99237.69;;;11.68;90.50
64872;BME280;51351;51.450;6.614;2023-10-19T01:12:30;99232.47;;;11.68;90.51
64872;BME280;51351;51.450;6.614;2023-10-19T01:17:34;99233.09;;;11.70;90.57
64872;BME280;51351;51.450;6.614;2023-10-19T01:20:08;99229.50;;;11.71;90.73
64872;BME280;51351;51.450;6.614;2023-10-19T01:25:47;99235.34;;;11.73;90.84
64872;BME280;51351;51.450;6.614;2023-10-19T01:28:16;99239.59;;;11.74;90.84
64872;BME280;51351;51.450;6.614;2023-10-19T01:30:43;99244.66;;;11.76;90.94
64872;BME280;51351;51.450;6.614;2023-10-19T01:33:17;99237.44;;;11.78;90.43
64872;BME280;51351;51.450;6.614;2023-10-19T01:35:44;99241.31;;;11.82;90.61
64872;BME280;51351;51.450;6.614;2023-10-19T01:38:29;99247.19;;;11.84;90.43
64872;BME280;51351;51.450;6.614;2023-10-19T01:41:01;99242.56;;;11.86;90.40
64872;BME280;51351;51.450;6.614;2023-10-19T01:43:31;99236.34;;;11.87;90.80
64872;BME280;51351;51.450;6.614;2023-10-19T01:45:57;99237.78;;;11.89;90.66
64872;BME280;51351;51.450;6.614;2023-10-19T01:48:24;99229.13;;;11.89;90.45
64872;BME280;51351;51.450;6.614;2023-10-19T01:51:05;99228.75;;;11.92;90.98
64872;BME280;51351;51.450;6.614;2023-10-19T01:53:34;99224.00;;;11.95;90.92
64872;BME280;51351;51.450;6.614;2023-10-19T01:56:02;99227.22;;;11.97;90.63
64872;BME280;51351;51.450;6.614;2023-10-19T01:58:31;99230.66;;;11.98;90.60
64872;BME280;51351;51.450;6.614;2023-10-19T02:01:03;99231.47;;;11.98;90.80
64872;BME280;51351;51.450;6.614;2023-10-19T02:03:35;99220.84;;;12.00;90.53
64872;BME280;51351;51.450;6.614;2023-10-19T02:06:02;99224.06;;;12.02;90.64
64872;BME280;51351;51.450;6.614;2023-10-19T02:09:01;99218.63;;;12.03;90.68
64872;BME280;51351;51.450;6.614;2023-10-19T02:11:34;99212.41;;;12.04;90.73
64872;BME280;51351;51.450;6.614;2023-10-19T02:14:07;99203.41;;;12.07;90.79
64872;BME280;51351;51.450;6.614;2023-10-19T02:16:42;99206.63;;;12.09;90.91
64872;BME280;51351;51.450;6.614;2023-10-19T02:19:09;99208.28;;;12.10;91.03
64872;BME280;51351;51.450;6.614;2023-10-19T02:21:34;99208.50;;;12.15;90.85
64872;BME280;51351;51.450;6.614;2023-10-19T02:24:09;99207.31;;;12.18;90.88
64872;BME280;51351;51.450;6.614;2023-10-19T02:26:35;99205.53;;;12.18;90.76
64872;BME280;51351;51.450;6.614;2023-10-19T02:29:03;99195.88;;;12.19;90.95
64872;BME280;51351;51.450;6.614;2023-10-19T02:31:40;99200.75;;;12.22;90.91
64872;BME280;51351;51.450;6.614;2023-10-19T02:34:07;99202.38;;;12.23;90.79
64872;BME280;51351;51.450;6.614;2023-10-19T02:36:34;99187.44;;;12.23;90.92
64872;BME280;51351;51.450;6.614;2023-10-19T02:39:03;99194.16;;;12.26;90.91
64872;BME280;51351;51.450;6.614;2023-10-19T02:41:34;99196.75;;;12.26;90.92
64872;BME280;51351;51.450;6.614;2023-10-19T02:44:03;99183.66;;;12.26;90.66
64872;BME280;51351;51.450;6.614;2023-10-19T02:46:29;99184.28;;;12.28;91.44
64872;BME280;51351;51.450;6.614;2023-10-19T02:48:55;99189.34;;;12.29;91.02
64872;BME280;51351;51.450;6.614;2023-10-19T02:51:22;99188.97;;;12.32;91.06
64872;BME280;51351;51.450;6.614;2023-10-19T02:53:47;99187.78;;;12.35;91.15
64872;BME280;51351;51.450;6.614;2023-10-19T02:56:14;99191.84;;;12.37;90.92
64872;BME280;51351;51.450;6.614;2023-10-19T02:58:43;99192.63;;;12.38;90.86
64872;BME280;51351;51.450;6.614;2023-10-19T03:01:20;99190.66;;;12.40;90.64
64872;BME280;51351;51.450;6.614;2023-10-19T03:03:54;99190.66;;;12.40;90.45
64872;BME280;51351;51.450;6.614;2023-10-19T03:06:23;99188.88;;;12.40;90.65
64872;BME280;51351;51.450;6.614;2023-10-19T03:08:49;99182.81;;;12.40;90.59
64872;BME280;51351;51.450;6.614;2023-10-19T03:11:27;99185.25;;;12.41;90.74
64872;BME280;51351;51.450;6.614;2023-10-19T03:13:55;99185.88;;;12.43;90.75
64872;BME280;51351;51.450;6.614;2023-10-19T03:16:22;99184.88;;;12.44;90.63
64872;BME280;51351;51.450;6.614;2023-10-19T03:18:49;99187.50;;;12.44;90.53
64872;BME280;51351;51.450;6.614;2023-10-19T03:21:16;99179.81;;;12.43;91.01
64872;BME280;51351;51.450;6.614;2023-10-19T03:23:42;99183.69;;;12.47;90.92
64872;BME280;51351;51.450;6.614;2023-10-19T03:26:08;99183.88;;;12.45;90.92
64872;BME280;51351;51.450;6.614;2023-10-19T03:28:45;99182.84;;;12.46;90.96
64872;BME280;51351;51.450;6.614;2023-10-19T03:31:11;99175.63;;;12.48;90.84
64872;BME280;51351;51.450;6.614;2023-10-19T03:33:46;99179.06;;;12.49;90.93
64872;BME280;51351;51.450;6.614;2023-10-19T03:36:20;99171.22;;;12.49;90.90
64872;BME280;51351;51.450;6.614;2023-10-19T03:38:46;99175.44;;;12.50;90.61
64872;BME280;51351;51.450;6.614;2023-10-19T03:41:12;99170.03;;;12.51;90.93
64872;BME280;51351;51.450;6.614;2023-10-19T03:43:37;99165.44;;;12.53;90.82
64872;BME280;51351;51.450;6.614;2023-10-19T03:46:07;99172.28;;;12.54;91.12
64872;BME280;51351;51.450;6.614;2023-10-19T03:48:47;99165.03;;;12.56;91.15
64872;BME280;51351;51.450;6.614;2023-10-19T03:51:13;99167.63;;;12.56;90.70
64872;BME280;51351;51.450;6.614;2023-10-19T03:53:39;99165.03;;;12.56;91.13
64872;BME280;51351;51.450;6.614;2023-10-19T03:56:11;99161.06;;;12.60;91.24
64872;BME280;51351;51.450;6.614;2023-10-19T03:58:37;99163.13;;;12.65;91.18
64872;BME280;51351;51.450;6.614;2023-10-19T04:01:05;99154.44;;;12.64;90.94
64872;BME280;51351;51.450;6.614;2023-10-19T04:03:31;99149.63;;;12.68;90.87
64872;BME280;51351;51.450;6.614;2023-10-19T04:05:56;99144.19;;;12.69;90.99
64872;BME280;51351;51.450;6.614;2023-10-19T04:08:26;99149.25;;;12.71;90.84
64872;BME280;51351;51.450;6.614;2023-10-19T04:10:52;99147.25;;;12.73;90.90
64872;BME280;51351;51.450;6.614;2023-10-19T04:13:36;99147.25;;;12.73;90.67
64872;BME280;51351;51.450;6.614;2023-10-19T04:16:02;99148.06;;;12.73;90.75
64872;BME280;51351;51.450;6.614;2023-10-19T04:18:28;99146.06;;;12.75;90.79
64872;BME280;51351;51.450;6.614;2023-10-19T04:20:54;99144.44;;;12.74;90.64
64872;BME280;51351;51.450;6.614;2023-10-19T04:23:20;99134.78;;;12.75;90.40
64872;BME280;51351;51.450;6.614;2023-10-19T04:25:55;99141.81;;;12.74;90.18
64872;BME280;51351;51.450;6.614;2023-10-19T04:28:29;99145.63;;;12.72;90.99
64872;BME280;51351;51.450;6.614;2023-10-19T04:31:06;99140.22;;;12.73;90.91
64872;BME280;51351;51.450;6.614;2023-10-19T04:33:32;99143.63;;;12.74;90.94
64872;BME280;51351;51.450;6.614;2023-10-19T04:35:59;99144.63;;;12.73;90.74
64872;BME280;51351;51.450;6.614;2023-10-19T04:38:27;99151.66;;;12.72;90.87
64872;BME280;51351;51.450;6.614;2023-10-19T04:40:52;99155.28;;;12.71;90.80
64872;BME280;51351;51.450;6.614;2023-10-19T04:43:18;99151.66;;;12.72;90.91
64872;BME280;51351;51.450;6.614;2023-10-19T04:45:44;99146.44;;;12.72;91.08
64872;BME280;51351;51.450;6.614;2023-10-19T04:48:10;99152.50;;;12.73;90.79
64872;BME280;51351;51.450;6.614;2023-10-19T04:50:36;99149.88;;;12.73;90.89
64872;BME280;51351;51.450;6.614;2023-10-19T04:53:02;99143.63;;;12.74;91.18
64872;BME280;51351;51.450;6.614;2023-10-19T04:55:29;99143.44;;;12.75;90.97
64872;BME280;51351;51.450;6.614;2023-10-19T04:57:55;99143.44;;;12.75;91.08
64872;BME280;51351;51.450;6.614;2023-10-19T05:00:22;99146.88;;;12.76;91.15
64872;BME280;51351;51.450;6.614;2023-10-19T05:02:50;99147.06;;;12.74;90.85
64872;BME280;51351;51.450;6.614;2023-10-19T05:05:17;99150.69;;;12.73;90.90
64872;BME280;51351;51.450;6.614;2023-10-19T05:07:44;99148.44;;;12.70;90.60
64872;BME280;51351;51.450;6.614;2023-10-19T05:10:10;99149.41;;;12.69;90.79
64872;BME280;51351;51.450;6.614;2023-10-19T05:12:36;99147.81;;;12.68;91.08
64872;BME280;51351;51.450;6.614;2023-10-19T05:15:02;99147.00;;;12.68;90.61
64872;BME280;51351;51.450;6.614;2023-10-19T05:17:27;99155.84;;;12.67;91.01
64872;BME280;51351;51.450;6.614;2023-10-19T05:19:53;99147.00;;;12.68;91.37
64872;BME280;51351;51.450;6.614;2023-10-19T05:22:18;99150.44;;;12.68;91.19
64872;BME280;51351;51.450;6.614;2023-10-19T05:24:44;99148.81;;;12.67;91.19
64872;BME280;51351;51.450;6.614;2023-10-19T05:27:10;99156.69;;;12.67;91.03
64872;BME280;51351;51.450;6.614;2023-10-19T05:29:37;99145.56;;;12.65;90.90
64872;BME280;51351;51.450;6.614;2023-10-19T05:32:10;99155.44;;;12.63;91.04
64872;BME280;51351;51.450;6.614;2023-10-19T05:34:35;99158.25;;;12.62;90.93
64872;BME280;51351;51.450;6.614;2023-10-19T05:37:02;99146.50;;;12.58;90.79
64872;BME280;51351;51.450;6.614;2023-10-19T05:39:28;99143.88;;;12.58;91.04
64872;BME280;51351;51.450;6.614;2023-10-19T05:41:57;99150.75;;;12.59;90.95
64872;BME280;51351;51.450;6.614;2023-10-19T05:44:27;99146.91;;;12.55;91.00
64872;BME280;51351;51.450;6.614;2023-10-19T05:46:52;99155.56;;;12.55;91.29
64872;BME280;51351;51.450;6.614;2023-10-19T05:49:20;99149.72;;;12.53;91.13
64872;BME280;51351;51.450;6.614;2023-10-19T05:51:45;99151.88;;;12.50;91.12
64872;BME280;51351;51.450;6.614;2023-10-19T05:54:11;99160.09;;;12.47;90.80
64872;BME280;51351;51.450;6.614;2023-10-19T05:56:37;99156.84;;;12.45;91.69
64872;BME280;51351;51.450;6.614;2023-10-19T05:59:03;99156.25;;;12.43;91.15
64872;BME280;51351;51.450;6.614;2023-10-19T06:01:30;99163.47;;;12.41;91.13
64872;BME280;51351;51.450;6.614;2023-10-19T06:03:55;99165.31;;;12.40;91.32
64872;BME280;51351;51.450;6.614;2023-10-19T06:06:22;99160.66;;;12.42;91.45
64872;BME280;51351;51.450;6.614;2023-10-19T06:08:47;99170.78;;;12.45;91.52
64872;BME280;51351;51.450;6.614;2023-10-19T06:11:13;99181.88;;;12.47;91.59
64872;BME280;51351;51.450;6.614;2023-10-19T06:13:39;99182.66;;;12.48;91.72
64872;BME280;51351;51.450;6.614;2023-10-19T06:16:04;99183.50;;;12.48;91.72
64872;BME280;51351;51.450;6.614;2023-10-19T06:18:30;99175.44;;;12.50;91.62
64872;BME280;51351;51.450;6.614;2023-10-19T06:20:55;99181.50;;;12.50;91.59
64872;BME280;51351;51.450;6.614;2023-10-19T06:23:21;99186.56;;;12.52;91.71
64872;BME280;51351;51.450;6.614;2023-10-19T06:25:47;99181.56;;;12.57;91.84
64872;BME280;51351;51.450;6.614;2023-10-19T06:28:13;99195.28;;;12.59;91.83
64872;BME280;51351;51.450;6.614;2023-10-19T06:30:39;99193.28;;;12.61;91.61
64872;BME280;51351;51.450;6.614;2023-10-19T06:33:05;99192.31;;;12.62;91.52
64872;BME280;51351;51.450;6.614;2023-10-19T06:35:32;99201.59;;;12.64;91.85
64872;BME280;51351;51.450;6.614;2023-10-19T06:37:58;99191.75;;;12.66;91.33
64872;BME280;51351;51.450;6.614;2023-10-19T06:40:29;99194.97;;;12.68;91.32
64872;BME280;51351;51.450;6.614;2023-10-19T06:42:55;99193.78;;;12.71;91.43
64872;BME280;51351;51.450;6.614;2023-10-19T06:45:21;99196.22;;;12.72;91.30
64872;BME280;51351;51.450;6.614;2023-10-19T06:47:48;99197.66;;;12.75;91.65
64872;BME280;51351;51.450;6.614;2023-10-19T06:50:20;99198.09;;;12.78;91.52
64872;BME280;51351;51.450;6.614;2023-10-19T06:52:47;99193.28;;;12.82;91.59
64872;BME280;51351;51.450;6.614;2023-10-19T06:55:17;99207.44;;;12.87;91.31
64872;BME280;51351;51.450;6.614;2023-10-19T06:57:47;99198.38;;;12.90;91.46
64872;BME280;51351;51.450;6.614;2023-10-19T07:00:17;99204.06;;;12.93;91.26
64872;BME280;51351;51.450;6.614;2023-10-19T07:02:50;99207.78;;;12.99;91.41
64872;BME280;51351;51.450;6.614;2023-10-19T07:05:16;99211.63;;;13.03;91.32
64872;BME280;51351;51.450;6.614;2023-10-19T07:08:00;99212.66;;;13.02;91.33
64872;BME280;51351;51.450;6.614;2023-10-19T07:10:27;99207.81;;;13.05;91.31
64872;BME280;51351;51.450;6.614;2023-10-19T07:12:54;99208.44;;;13.07;91.16
64872;BME280;51351;51.450;6.614;2023-10-19T07:15:21;99207.44;;;13.08;91.24
64872;BME280;51351;51.450;6.614;2023-10-19T07:17:49;99215.75;;;13.12;91.08
64872;BME280;51351;51.450;6.614;2023-10-19T07:20:16;99213.53;;;13.15;90.84
64872;BME280;51351;51.450;6.614;2023-10-19T07:22:53;99216.59;;;13.19;91.17
64872;BME280;51351;51.450;6.614;2023-10-19T07:25:22;99219.25;;;13.25;90.90
64872;BME280;51351;51.450;6.614;2023-10-19T07:27:52;99219.31;;;13.32;91.33
64872;BME280;51351;51.450;6.614;2023-10-19T07:30:19;99220.19;;;13.39;91.00
64872;BME280;51351;51.450;6.614;2023-10-19T07:32:52;99222.63;;;13.47;90.95
64872;BME280;51351;51.450;6.614;2023-10-19T07:35:21;99219.25;;;13.53;91.01
64872;BME280;51351;51.450;6.614;2023-10-19T07:37:48;99219.31;;;13.59;90.96
64872;BME280;51351;51.450;6.614;2023-10-19T07:40:15;99221.97;;;13.66;90.57
64872;BME280;51351;51.450;6.614;2023-10-19T07:42:43;99219.38;;;13.72;90.43
64872;BME280;51351;51.450;6.614;2023-10-19T07:45:21;99221.03;;;13.80;90.53
64872;BME280;51351;51.450;6.614;2023-10-19T07:47:47;99212.56;;;13.84;90.08
64872;BME280;51351;51.450;6.614;2023-10-19T07:50:13;99219.69;;;13.90;90.17
64872;BME280;51351;51.450;6.614;2023-10-19T07:52:46;99217.47;;;13.94;89.80
64872;BME280;51351;51.450;6.614;2023-10-19T07:55:14;99219.94;;;14.02;89.94
64872;BME280;51351;51.450;6.614;2023-10-19T07:57:41;99217.53;;;14.07;89.70
64872;BME280;51351;51.450;6.614;2023-10-19T08:00:08;99218.56;;;14.12;89.78
64872;BME280;51351;51.450;6.614;2023-10-19T08:02:34;99210.91;;;14.17;89.75
64872;BME280;51351;51.450;6.614;2023-10-19T08:05:19;99213.59;;;14.24;89.47
64872;BME280;51351;51.450;6.614;2023-10-19T08:07:44;99209.34;;;14.29;89.45
64872;BME280;51351;51.450;6.614;2023-10-19T08:10:14;99212.81;;;14.36;89.03
64872;BME280;51351;51.450;6.614;2023-10-19T08:12:41;99211.63;;;14.46;89.38
64872;BME280;51351;51.450;6.614;2023-10-19T08:15:12;99199.50;;;14.51;88.57
64872;BME280;51351;51.450;6.614;2023-10-19T08:17:38;99199.50;;;14.58;88.62
64872;BME280;51351;51.450;6.614;2023-10-19T08:20:06;99195.28;;;14.63;88.63
64872;BME280;51351;51.450;6.614;2023-10-19T08:22:37;99197.09;;;14.69;88.42
64872;BME280;51351;51.450;6.614;2023-10-19T08:25:03;99206.44;;;14.72;87.52
64872;BME280;51351;51.450;6.614;2023-10-19T08:27:30;99202.38;;;14.76;88.10
64872;BME280;51351;51.450;6.614;2023-10-19T08:29:58;99196.94;;;14.77;88.26
64872;BME280;51351;51.450;6.614;2023-10-19T08:32:24;99204.59;;;14.72;87.54
64872;BME280;51351;51.450;6.614;2023-10-19T08:34:50;99201.16;;;14.72;88.13
64872;BME280;51351;51.450;6.614;2023-10-19T08:37:15;99196.91;;;14.71;87.27
64872;BME280;51351;51.450;6.614;2023-10-19T08:39:41;99202.78;;;14.73;87.83
64872;BME280;51351;51.450;6.614;2023-10-19T08:42:08;99191.88;;;14.76;87.87
64872;BME280;51351;51.450;6.614;2023-10-19T08:44:35;99195.31;;;14.83;88.18
64872;BME280;51351;51.450;6.614;2023-10-19T08:47:01;99190.25;;;14.88;87.71
64872;BME280;51351;51.450;6.614;2023-10-19T08:49:27;99193.50;;;14.90;87.61
64872;BME280;51351;51.450;6.614;2023-10-19T08:51:53;99194.31;;;14.97;88.05
64872;BME280;51351;51.450;6.614;2023-10-19T08:54:19;99189.84;;;14.97;87.55
64872;BME280;51351;51.450;6.614;2023-10-19T08:56:45;99184.41;;;14.99;87.57
64872;BME280;51351;51.450;6.614;2023-10-19T08:59:14;99180.34;;;15.03;87.28
64872;BME280;51351;51.450;6.614;2023-10-19T09:01:42;99174.28;;;15.09;87.60
64872;BME280;51351;51.450;6.614;2023-10-19T09:04:11;99172.63;;;15.21;87.20
64872;BME280;51351;51.450;6.614;2023-10-19T09:06:37;99175.84;;;15.29;86.91
64872;BME280;51351;51.450;6.614;2023-10-19T09:09:14;99169.19;;;15.40;86.57
64872;BME280;51351;51.450;6.614;2023-10-19T09:11:44;99166.16;;;15.49;85.54
64872;BME280;51351;51.450;6.614;2023-10-19T09:14:12;99169.75;;;15.61;86.51
64872;BME280;51351;51.450;6.614;2023-10-19T09:16:54;99174.78;;;15.76;84.65
64872;BME280;51351;51.450;6.614;2023-10-19T09:19:55;99172.03;;;16.02;83.37
64872;BME280;51351;51.450;6.614;2023-10-19T09:22:21;99171.16;;;16.21;85.07
64872;BME280;51351;51.450;6.614;2023-10-19T09:24:50;99178.31;;;16.38;85.37
64872;BME280;51351;51.450;6.614;2023-10-19T09:27:16;99170.81;;;16.42;82.24
64872;BME280;51351;51.450;6.614;2023-10-19T09:29:43;99171.81;;;16.47;83.24
64872;BME280;51351;51.450;6.614;2023-10-19T09:32:08;99166.25;;;16.62;84.82
64872;BME280;51351;51.450;6.614;2023-10-19T09:34:35;99165.09;;;16.83;82.57
64872;BME280;51351;51.450;6.614;2023-10-19T09:37:01;99168.94;;;17.05;83.47
64872;BME280;51351;51.450;6.614;2023-10-19T09:39:29;99160.88;;;17.24;82.08
64872;BME280;51351;51.450;6.614;2023-10-19T09:42:08;99150.75;;;17.39;81.30
64872;BME280;51351;51.450;6.614;2023-10-19T09:44:43;99159.00;;;17.85;81.34
64872;BME280;51351;51.450;6.614;2023-10-19T09:50:06;99153.47;;;18.34;81.45
64872;BME280;51351;51.450;6.614;2023-10-19T09:52:33;99157.94;;;18.52;79.01
64872;BME280;51351;51.450;6.614;2023-10-19T09:55:17;99152.66;;;18.52;74.44
64872;BME280;51351;51.450;6.614;2023-10-19T09:58:19;99146.03;;;18.72;75.06
64872;BME280;51351;51.450;6.614;2023-10-19T10:00:46;99147.19;;;18.76;79.88
64872;BME280;51351;51.450;6.614;2023-10-19T10:03:46;99156.84;;;18.71;75.48
64872;BME280;51351;51.450;6.614;2023-10-19T10:06:29;99148.47;;;18.74;72.92
64872;BME280;51351;51.450;6.614;2023-10-19T10:09:01;99142.25;;;19.03;77.91
64872;BME280;51351;51.450;6.614;2023-10-19T10:11:28;99141.03;;;19.40;77.50
64872;BME280;51351;51.450;6.614;2023-10-19T10:14:01;99136.91;;;19.72;76.40
64872;BME280;51351;51.450;6.614;2023-10-19T10:20:44;99147.72;;;19.82;73.45
64872;BME280;51351;51.450;6.614;2023-10-19T10:23:24;99135.94;;;19.90;68.80
64872;BME280;51351;51.450;6.614;2023-10-19T10:25:58;99133.44;;;19.83;71.19
64872;BME280;51351;51.450;6.614;2023-10-19T10:28:24;99127.94;;;19.73;72.36
64872;BME280;51351;51.450;6.614;2023-10-19T10:33:47;99121.44;;;19.53;69.25
64872;BME280;51351;51.450;6.614;2023-10-19T10:36:14;99119.69;;;19.47;71.46
64872;BME280;51351;51.450;6.614;2023-10-19T10:38:43;99114.28;;;19.53;72.97
64872;BME280;51351;51.450;6.614;2023-10-19T10:41:08;99120.25;;;19.60;72.28
64872;BME280;51351;51.450;6.614;2023-10-19T10:43:59;99116.81;;;19.48;68.28
64872;BME280;51351;51.450;6.614;2023-10-19T10:46:26;99115.06;;;19.54;71.79
64872;BME280;51351;51.450;6.614;2023-10-19T10:48:53;99121.03;;;19.61;71.76
64872;BME280;51351;51.450;6.614;2023-10-19T10:51:22;99126.25;;;19.56;68.26
64872;BME280;51351;51.450;6.614;2023-10-19T10:53:53;99113.91;;;19.61;70.35
64872;BME280;51351;51.450;6.614;2023-10-19T10:56:22;99105.88;;;19.45;70.90
64872;BME280;51351;51.450;6.614;2023-10-19T10:58:48;99113.34;;;19.48;70.69
64872;BME280;51351;51.450;6.614;2023-10-19T11:01:15;99115.78;;;19.38;70.24
64872;BME280;51351;51.450;6.614;2023-10-19T11:03:41;99112.47;;;19.31;70.33
64872;BME280;51351;51.450;6.614;2023-10-19T11:06:11;99111.09;;;19.28;68.84
64872;BME280;51351;51.450;6.614;2023-10-19T11:08:37;99110.22;;;19.62;68.77
64872;BME280;51351;51.450;6.614;2023-10-19T11:11:08;99103.09;;;19.63;66.96
64872;BME280;51351;51.450;6.614;2023-10-19T11:13:38;99100.28;;;19.69;67.59
64872;BME280;51351;51.450;6.614;2023-10-19T11:16:07;99095.66;;;19.76;67.11
64872;BME280;51351;51.450;6.614;2023-10-19T11:18:36;99099.13;;;19.77;66.97
64872;BME280;51351;51.450;6.614;2023-10-19T11:21:14;99094.72;;;19.82;64.94
64872;BME280;51351;51.450;6.614;2023-10-19T11:23:47;99090.81;;;19.85;66.65
64872;BME280;51351;51.450;6.614;2023-10-19T11:26:16;99091.94;;;19.89;64.97
64872;BME280;51351;51.450;6.614;2023-10-19T11:28:42;99086.84;;;19.99;66.53
64872;BME280;51351;51.450;6.614;2023-10-19T11:31:20;99081.84;;;20.02;66.01
64872;BME280;51351;51.450;6.614;2023-10-19T11:33:51;99071.72;;;19.99;66.28
64872;BME280;51351;51.450;6.614;2023-10-19T11:36:17;99075.63;;;19.80;66.14
64872;BME280;51351;51.450;6.614;2023-10-19T11:38:45;99074.88;;;19.57;66.14
64872;BME280;51351;51.450;6.614;2023-10-19T11:41:14;99068.72;;;19.28;67.10
64872;BME280;51351;51.450;6.614;2023-10-19T11:43:41;99072.41;;;19.04;67.26
64872;BME280;51351;51.450;6.614;2023-10-19T11:46:08;99087.16;;;18.88;67.32
64872;BME280;51351;51.450;6.614;2023-10-19T11:48:35;99071.84;;;18.79;67.62
64872;BME280;51351;51.450;6.614;2023-10-19T11:51:02;99065.50;;;18.80;68.26
64872;BME280;51351;51.450;6.614;2023-10-19T11:53:35;99062.75;;;18.75;67.36
64872;BME280;51351;51.450;6.614;2023-10-19T11:56:06;99059.97;;;18.81;68.14
64872;BME280;51351;51.450;6.614;2023-10-19T11:58:33;99070.78;;;18.80;68.23
64872;BME280;51351;51.450;6.614;2023-10-19T12:01:03;99071.59;;;18.80;68.34
64872;BME280;51351;51.450;6.614;2023-10-19T12:03:38;99066.31;;;18.80;68.42
64872;BME280;51351;51.450;6.614;2023-10-19T12:06:09;99055.88;;;18.74;68.01
64872;BME280;51351;51.450;6.614;2023-10-19T12:08:36;99052.75;;;18.77;68.79
64872;BME280;51351;51.450;6.614;2023-10-19T12:11:02;99065.63;;;18.85;68.83
64872;BME280;51351;51.450;6.614;2023-10-19T12:13:43;99058.38;;;18.80;68.52
64872;BME280;51351;51.450;6.614;2023-10-19T12:16:12;99056.19;;;18.77;67.52
64872;BME280;51351;51.450;6.614;2023-10-19T12:18:45;99054.69;;;18.70;67.16
64872;BME280;51351;51.450;6.614;2023-10-19T12:21:11;99051.50;;;18.79;67.03
64872;BME280;51351;51.450;6.614;2023-10-19T12:23:41;99056.19;;;18.89;67.23
64872;BME280;51351;51.450;6.614;2023-10-19T12:26:08;99059.97;;;18.81;66.58
64872;BME280;51351;51.450;6.614;2023-10-19T12:28:38;99043.88;;;18.83;67.92
64872;BME280;51351;51.450;6.614;2023-10-19T12:31:04;99050.34;;;18.75;67.54
64872;BME280;51351;51.450;6.614;2023-10-19T12:33:30;99060.22;;;18.68;67.71
64872;BME280;51351;51.450;6.614;2023-10-19T12:35:56;99057.78;;;18.67;68.12
64872;BME280;51351;51.450;6.614;2023-10-19T12:38:24;99055.41;;;18.65;67.84
64872;BME280;51351;51.450;6.614;2023-10-19T12:40:51;99058.16;;;18.70;69.07
64872;BME280;51351;51.450;6.614;2023-10-19T12:43:18;99056.66;;;18.74;68.60
64872;BME280;51351;51.450;6.614;2023-10-19T12:45:50;99044.09;;;18.81;67.89
64872;BME280;51351;51.450;6.614;2023-10-19T12:48:19;99046.19;;;18.91;68.88
64872;BME280;51351;51.450;6.614;2023-10-19T12:50:46;99050.56;;;18.85;68.27
64872;BME280;51351;51.450;6.614;2023-10-19T12:53:11;99045.38;;;18.79;68.15
64872;BME280;51351;51.450;6.614;2023-10-19T12:55:37;99052.50;;;18.67;67.87
64872;BME280;51351;51.450;6.614;2023-10-19T12:58:04;99050.78;;;18.61;68.78
64872;BME280;51351;51.450;6.614;2023-10-19T13:00:35;99046.50;;;18.48;68.85
64872;BME280;51351;51.450;6.614;2023-10-19T13:03:05;99037.09;;;18.41;69.54
64872;BME280;51351;51.450;6.614;2023-10-19T13:05:37;99037.16;;;18.34;69.44
64872;BME280;51351;51.450;6.614;2023-10-19T13:08:11;99033.38;;;18.30;69.62
64872;BME280;51351;51.450;6.614;2023-10-19T13:10:41;99031.75;;;18.29;70.35
64872;BME280;51351;51.450;6.614;2023-10-19T13:13:09;99042.78;;;18.26;70.21
64872;BME280;51351;51.450;6.614;2023-10-19T13:15:39;99031.50;;;18.19;70.84
64872;BME280;51351;51.450;6.614;2023-10-19T13:18:07;99019.53;;;18.17;71.17
64872;BME280;51351;51.450;6.614;2023-10-19T13:20:36;99025.75;;;18.11;71.52
64872;BME280;51351;51.450;6.614;2023-10-19T13:23:08;99028.94;;;18.01;72.24
64872;BME280;51351;51.450;6.614;2023-10-19T13:25:46;99031.75;;;17.88;72.65
64872;BME280;51351;51.450;6.614;2023-10-19T13:28:16;99040.00;;;17.80;73.19